Time;durP1;ratioP1;P1;durP2;ratioP2;P2;SDS_P1;SDS_P2;PMS_P1;PMS_P2;Temp;Humidity;BMP_temperature;BMP_pressure;BME280_temperature;BME280_humidity;BME280_pressure;Samples;Min_cycle;Max_cycle;Signal;HPM_P1;HPM_P2
2023/06/17 00:00:22;;;;;;;8.93;4.70;;;;;;;17.69;91.62;101653.66;5031068;28;20022;-49
2023/06/17 00:02:48;;;;;;;8.35;4.75;;;;;;;17.65;91.43;101652.38;5042531;28;20438;-52
2023/06/17 00:05:14;;;;;;;9.70;4.18;;;;;;;17.65;91.34;101646.94;5049429;28;20040;-50
2023/06/17 00:07:39;;;;;;;10.30;4.50;;;;;;;17.62;91.44;101647.34;5049797;28;20112;-49
2023/06/17 00:10:06;;;;;;;7.10;5.05;;;;;;;17.59;91.04;101642.34;5048821;28;20017;-48
2023/06/17 00:12:31;;;;;;;9.52;5.13;;;;;;;17.61;91.02;101640.22;5014842;28;20484;-49
2023/06/17 00:15:02;;;;;;;6.25;4.55;;;;;;;17.58;91.85;101635.19;5048501;28;20025;-45
2023/06/17 00:17:30;;;;;;;8.18;4.40;;;;;;;17.56;92.19;101631.84;5033706;28;20433;-46
2023/06/17 00:19:56;;;;;;;8.45;4.82;;;;;;;17.52;92.18;101626.00;5050677;28;20406;-48
2023/06/17 00:22:25;;;;;;;5.85;4.38;;;;;;;17.51;93.00;101635.22;5051247;28;20039;-46
2023/06/17 00:24:51;;;;;;;6.47;4.18;;;;;;;17.52;92.29;101630.59;5033717;28;20033;-48
2023/06/17 00:27:16;;;;;;;5.88;4.60;;;;;;;17.44;92.06;101630.81;5049126;28;20041;-50
2023/06/17 00:29:42;;;;;;;7.82;4.53;;;;;;;17.42;92.25;101630.19;5049841;28;20033;-48
2023/06/17 00:32:07;;;;;;;6.03;4.43;;;;;;;17.40;91.43;101638.53;5051424;28;20383;-48
2023/06/17 00:34:34;;;;;;;7.47;4.57;;;;;;;17.41;90.40;101631.22;5036872;28;20034;-46
2023/06/17 00:37:00;;;;;;;4.87;4.33;;;;;;;17.34;91.35;101629.31;5031320;28;20129;-51
2023/06/17 00:39:25;;;;;;;6.10;4.53;;;;;;;17.31;93.09;101624.28;5029621;28;20121;-48
2023/06/17 00:41:50;;;;;;;9.60;4.75;;;;;;;17.29;94.02;101612.78;5030710;28;20029;-50
2023/06/17 00:44:16;;;;;;;6.47;5.30;;;;;;;17.28;95.79;101613.00;5038038;28;20390;-49
2023/06/17 00:46:46;;;;;;;9.43;5.40;;;;;;;17.30;98.57;101616.38;5032879;28;20040;-47
2023/06/17 00:49:11;;;;;;;10.55;6.80;;;;;;;17.30;100.00;101611.75;5050224;28;20036;-49
2023/06/17 00:51:36;;;;;;;15.05;6.45;;;;;;;17.29;100.00;101618.22;5034873;28;20499;-49
2023/06/17 00:54:02;;;;;;;10.38;6.28;;;;;;;17.28;100.00;101619.28;5038488;28;20447;-50
2023/06/17 00:56:29;;;;;;;7.07;5.78;;;;;;;17.24;100.00;101618.00;5030537;28;20018;-47
2023/06/17 00:58:54;;;;;;;7.30;5.72;;;;;;;17.22;100.00;101611.09;5044834;28;20067;-47
2023/06/17 01:01:20;;;;;;;11.50;6.55;;;;;;;17.18;100.00;101612.56;5030375;28;20052;-50
2023/06/17 01:03:46;;;;;;;10.70;6.15;;;;;;;17.17;100.00;101617.19;5012825;28;20117;-48
2023/06/17 01:06:17;;;;;;;8.75;6.43;;;;;;;17.14;100.00;101614.88;5030388;28;20033;-50
2023/06/17 01:08:45;;;;;;;7.65;6.50;;;;;;;17.10;100.00;101622.59;5050068;28;20120;-49
2023/06/17 01:11:14;;;;;;;8.55;6.88;;;;;;;17.09;100.00;101618.22;5049211;28;20103;-49
2023/06/17 01:13:43;;;;;;;14.38;6.95;;;;;;;17.14;100.00;101623.03;5043784;28;20384;-49
2023/06/17 01:16:09;;;;;;;9.82;7.93;;;;;;;17.14;100.00;101623.03;5029126;28;20064;-50
2023/06/17 01:18:36;;;;;;;8.95;8.00;;;;;;;17.12;100.00;101625.13;5029619;28;20017;-48
2023/06/17 01:21:03;;;;;;;10.73;8.15;;;;;;;17.09;100.00;101628.25;5029181;28;20033;-47
2023/06/17 01:23:34;;;;;;;14.85;9.25;;;;;;;17.06;100.00;101625.91;5029835;28;21183;-50
2023/06/17 01:26:01;;;;;;;13.15;9.48;;;;;;;17.02;100.00;101633.66;5048441;28;20032;-48
2023/06/17 01:28:29;;;;;;;15.98;9.00;;;;;;;16.98;100.00;101645.16;5039137;28;20056;-46
2023/06/17 01:30:55;;;;;;;15.93;8.73;;;;;;;16.96;100.00;101647.25;5032144;28;20088;-48
2023/06/17 01:33:21;;;;;;;11.98;8.55;;;;;;;16.92;100.00;101645.97;5032618;28;20025;-49
2023/06/17 01:36:00;;;;;;;12.48;9.40;;;;;;;16.87;100.00;101649.31;5033849;28;20084;-49
2023/06/17 01:38:35;;;;;;;16.40;8.90;;;;;;;16.86;100.00;101644.91;5032827;28;20192;-50
2023/06/17 01:41:39;;;;;;;13.63;8.80;;;;;;;16.85;100.00;101645.94;5033021;28;20029;-47
2023/06/17 01:44:04;;;;;;;11.60;9.27;;;;;;;16.84;100.00;101645.09;5034137;28;20073;-53
2023/06/17 01:46:30;;;;;;;13.40;9.05;;;;;;;16.84;100.00;101647.00;5033949;28;20076;-51
2023/06/17 01:48:56;;;;;;;9.77;8.60;;;;;;;16.80;100.00;101652.00;5015893;28;20095;-47
2023/06/17 01:51:21;;;;;;;14.55;10.05;;;;;;;16.78;100.00;101640.50;5033339;28;20080;-49
2023/06/17 01:53:47;;;;;;;13.88;10.18;;;;;;;16.74;100.00;101636.47;5033820;28;20192;-51
2023/06/17 01:56:13;;;;;;;13.63;9.63;;;;;;;16.75;100.00;101634.59;5033627;28;20052;-46
2023/06/17 01:58:39;;;;;;;15.13;9.73;;;;;;;16.73;100.00;101636.69;5033245;28;20434;-48
2023/06/17 02:01:04;;;;;;;13.40;10.63;;;;;;;16.72;100.00;101634.97;5038813;28;20086;-48
2023/06/17 02:03:30;;;;;;;16.95;10.35;;;;;;;16.69;100.00;101630.78;5052411;28;20428;-51
2023/06/17 02:05:57;;;;;;;14.00;10.25;;;;;;;16.64;100.00;101633.28;5052271;28;20033;-48
2023/06/17 02:08:23;;;;;;;10.77;9.68;;;;;;;16.61;100.00;101622.81;5053582;28;20025;-48
2023/06/17 02:10:48;;;;;;;17.45;11.18;;;;;;;16.59;100.00;101624.94;5051696;28;20025;-51
2023/06/17 02:13:14;;;;;;;14.20;12.38;;;;;;;16.56;100.00;101628.03;5050048;28;20028;-51
2023/06/17 02:15:42;;;;;;;13.48;11.27;;;;;;;16.52;100.00;101641.19;5053042;28;20443;-47
2023/06/17 02:18:08;;;;;;;14.73;12.10;;;;;;;16.52;100.00;101632.19;5036501;28;20116;-47
2023/06/17 02:20:33;;;;;;;14.32;12.75;;;;;;;16.49;100.00;101629.91;5031532;28;20148;-50
2023/06/17 02:22:59;;;;;;;16.85;13.68;;;;;;;16.47;100.00;101627.38;5031837;28;20057;-49
2023/06/17 02:25:24;;;;;;;18.10;14.10;;;;;;;16.45;100.00;101624.00;5031794;28;20029;-49
2023/06/17 02:27:50;;;;;;;22.75;14.15;;;;;;;16.42;100.00;101625.25;5052779;28;20021;-51
2023/06/17 02:30:15;;;;;;;17.63;14.07;;;;;;;16.34;100.00;101617.25;5052148;28;20092;-51
2023/06/17 02:32:40;;;;;;;16.10;13.25;;;;;;;16.34;100.00;101614.56;5043727;28;20029;-46
2023/06/17 02:35:07;;;;;;;17.30;14.25;;;;;;;16.31;100.00;101617.69;5032793;28;20365;-46
2023/06/17 02:37:33;;;;;;;15.57;13.02;;;;;;;16.27;100.00;101610.94;5031489;28;20033;-47
2023/06/17 02:39:58;;;;;;;16.50;13.52;;;;;;;16.27;100.00;101610.13;5032252;28;20072;-47
2023/06/17 02:42:23;;;;;;;15.85;13.65;;;;;;;16.25;100.00;101604.91;5031676;28;20064;-50
2023/06/17 02:44:49;;;;;;;17.90;15.02;;;;;;;16.20;100.00;101610.94;5032858;28;20033;-47
2023/06/17 02:47:14;;;;;;;18.02;13.38;;;;;;;16.18;100.00;101610.28;5030942;28;20168;-48
2023/06/17 02:49:40;;;;;;;20.63;13.45;;;;;;;16.16;100.00;101608.81;5030271;28;20097;-46
2023/06/17 02:52:06;;;;;;;17.48;14.68;;;;;;;16.13;100.00;101614.66;5045583;28;20033;-46
2023/06/17 02:54:31;;;;;;;15.93;13.00;;;;;;;16.11;100.00;101614.00;5051250;28;20045;-48
2023/06/17 02:56:56;;;;;;;17.40;14.82;;;;;;;16.12;100.00;101621.13;5034598;28;20091;-48
2023/06/17 02:59:22;;;;;;;18.60;14.60;;;;;;;16.12;100.00;101621.13;5052724;28;20403;-49
2023/06/17 03:01:48;;;;;;;18.73;15.00;;;;;;;16.10;100.00;101620.47;5031291;28;20044;-49
2023/06/17 03:04:13;;;;;;;15.90;13.70;;;;;;;16.09;100.00;101618.78;5032465;28;20036;-48
2023/06/17 03:06:44;;;;;;;17.48;14.75;;;;;;;16.08;100.00;101611.69;5030912;28;20041;-48
2023/06/17 03:09:10;;;;;;;16.38;13.75;;;;;;;16.06;100.00;101613.75;5031937;28;20480;-49
2023/06/17 03:11:36;;;;;;;15.57;13.88;;;;;;;16.07;100.00;101607.31;5031074;28;20036;-47
2023/06/17 03:14:01;;;;;;;16.40;14.20;;;;;;;16.02;100.00;101611.44;5032145;28;20038;-48
2023/06/17 03:16:30;;;;;;;18.25;13.55;;;;;;;16.00;100.00;101609.97;5032085;28;20033;-48
2023/06/17 03:18:58;;;;;;;18.65;14.48;;;;;;;15.91;100.00;101606.56;5032387;28;20033;-47
2023/06/17 03:21:24;;;;;;;16.15;13.30;;;;;;;15.89;100.00;101613.25;5031390;28;20029;-49
2023/06/17 03:23:50;;;;;;;18.52;13.40;;;;;;;15.90;100.00;101610.31;5031074;28;20060;-49
2023/06/17 03:26:17;;;;;;;19.15;13.05;;;;;;;15.89;100.00;101607.81;5030987;28;20060;-48
2023/06/17 03:28:43;;;;;;;16.60;13.50;;;;;;;15.86;100.00;101603.63;5031256;28;20032;-49
2023/06/17 03:31:09;;;;;;;19.58;13.20;;;;;;;15.88;100.00;101606.97;5032357;28;20387;-47
2023/06/17 03:33:34;;;;;;;16.70;13.98;;;;;;;15.86;100.00;101602.78;5032868;28;20357;-47
2023/06/17 03:36:00;;;;;;;19.48;12.73;;;;;;;15.86;100.00;101602.78;5051421;28;20410;-49
2023/06/17 03:38:25;;;;;;;14.60;12.98;;;;;;;15.92;100.00;101613.69;5031296;28;20461;-47
2023/06/17 03:40:50;;;;;;;14.57;12.02;;;;;;;15.95;100.00;101615.16;5016822;28;20468;-48
2023/06/17 03:43:16;;;;;;;24.77;13.38;;;;;;;15.94;100.00;101614.31;5049645;28;20048;-50
2023/06/17 03:45:41;;;;;;;13.98;12.48;;;;;;;15.96;100.00;101612.25;5028703;28;20087;-49
2023/06/17 03:48:06;;;;;;;13.52;12.05;;;;;;;16.05;100.00;101614.81;5014940;28;20064;-49
2023/06/17 03:50:32;;;;;;;15.13;12.50;;;;;;;16.09;100.00;101611.50;5030954;28;20033;-49
2023/06/17 03:52:58;;;;;;;18.70;11.35;;;;;;;16.06;100.00;101614.63;5027713;28;20025;-49
2023/06/17 03:55:24;;;;;;;14.85;11.90;;;;;;;16.07;100.00;101620.88;5027481;28;20045;-49
2023/06/17 03:57:50;;;;;;;12.82;11.02;;;;;;;16.14;100.00;101616.31;5028644;28;20197;-47
2023/06/17 04:00:16;;;;;;;15.95;11.00;;;;;;;16.21;100.00;101614.47;5028258;28;20068;-50
2023/06/17 04:02:45;;;;;;;14.10;11.77;;;;;;;16.22;100.00;101608.03;5026861;28;20743;-50
2023/06/17 04:05:13;;;;;;;17.60;12.02;;;;;;;16.21;100.00;101611.75;5029103;28;20378;-49
2023/06/17 04:07:39;;;;;;;15.90;11.52;;;;;;;16.22;100.00;101617.00;5029519;28;20078;-47
2023/06/17 04:10:08;;;;;;;14.10;11.65;;;;;;;16.27;100.00;101624.53;5043340;28;20426;-50
2023/06/17 04:12:37;;;;;;;13.00;10.52;;;;;;;16.36;100.00;101625.22;5029429;28;20033;-47
2023/06/17 04:15:06;;;;;;;13.70;10.63;;;;;;;16.45;100.00;101624.84;5027568;28;20059;-50
2023/06/17 04:17:32;;;;;;;13.02;10.48;;;;;;;16.54;100.00;101622.81;5029372;28;20439;-46
2023/06/17 04:20:04;;;;;;;13.93;10.43;;;;;;;16.58;100.00;101624.06;5028766;28;20026;-49
2023/06/17 04:22:29;;;;;;;13.15;11.07;;;;;;;16.69;100.00;101622.63;5012187;28;20029;-47
2023/06/17 04:24:55;;;;;;;11.95;10.38;;;;;;;16.79;100.00;101628.56;5028911;28;20392;-53
2023/06/17 04:27:22;;;;;;;16.17;10.32;;;;;;;16.89;100.00;101620.88;5028829;28;20049;-49
2023/06/17 04:29:48;;;;;;;19.08;10.52;;;;;;;16.94;100.00;101619.44;5039878;28;20025;-48
2023/06/17 04:32:15;;;;;;;12.85;10.52;;;;;;;16.96;100.00;101626.34;5047483;28;20258;-49
2023/06/17 04:34:43;;;;;;;13.68;10.52;;;;;;;17.05;100.00;101619.66;5048848;28;20035;-51
2023/06/17 04:37:08;;;;;;;14.23;10.25;;;;;;;17.09;100.00;101620.09;5047182;28;20040;-48
2023/06/17 04:39:34;;;;;;;13.27;10.70;;;;;;;17.11;100.00;101620.69;5036348;28;20033;-49
2023/06/17 04:42:00;;;;;;;12.02;10.20;;;;;;;17.16;100.00;101615.47;5028736;28;20448;-51
2023/06/17 04:44:26;;;;;;;16.67;10.90;;;;;;;17.25;100.00;101619.69;5028442;28;20036;-48
2023/06/17 04:46:52;;;;;;;11.98;9.80;;;;;;;17.36;100.00;101620.13;5027193;28;20037;-50
2023/06/17 04:49:17;;;;;;;10.43;9.20;;;;;;;17.49;100.00;101615.53;5015574;28;20289;-50
2023/06/17 04:51:43;;;;;;;12.25;9.52;;;;;;;17.61;100.00;101618.44;5026385;28;20046;-51
2023/06/17 04:54:08;;;;;;;16.35;8.82;;;;;;;17.76;100.00;101620.97;5028155;28;20036;-48
2023/06/17 04:56:34;;;;;;;9.98;8.32;;;;;;;17.87;100.00;101614.91;5028759;28;20034;-46
2023/06/17 04:59:00;;;;;;;12.25;7.88;;;;;;;17.99;100.00;101610.50;5030306;28;20479;-50
2023/06/17 05:01:25;;;;;;;9.98;8.90;;;;;;;18.07;100.00;101612.16;5027197;28;20036;-48
2023/06/17 05:03:51;;;;;;;10.52;8.52;;;;;;;18.13;100.00;101611.28;5027242;28;20021;-48
2023/06/17 05:06:16;;;;;;;11.38;8.38;;;;;;;18.21;100.00;101610.22;5010558;28;20100;-48
2023/06/17 05:08:41;;;;;;;11.75;8.50;;;;;;;18.26;100.00;101604.16;5029105;28;20037;-49
2023/06/17 05:11:07;;;;;;;11.27;8.98;;;;;;;18.29;100.00;101614.59;5027098;28;20175;-48
2023/06/17 05:13:32;;;;;;;12.63;8.73;;;;;;;18.33;100.00;101610.41;5028149;28;20060;-47
2023/06/17 05:15:57;;;;;;;12.60;10.35;;;;;;;18.35;100.00;101609.16;5043290;28;20029;-50
2023/06/17 05:18:23;;;;;;;13.05;10.73;;;;;;;18.29;100.00;101603.72;5031518;28;20022;-49
2023/06/17 05:20:48;;;;;;;10.63;9.52;;;;;;;18.32;100.00;101606.00;5032794;28;20040;-50
2023/06/17 05:23:13;;;;;;;12.45;8.70;;;;;;;18.41;100.00;101611.00;5037136;28;20064;-49
2023/06/17 05:25:39;;;;;;;11.90;9.85;;;;;;;18.52;100.00;101597.75;5038577;28;20082;-48
2023/06/17 05:28:10;;;;;;;14.55;8.95;;;;;;;18.59;100.00;101598.56;5034531;28;20095;-46
2023/06/17 05:30:35;;;;;;;13.75;7.80;;;;;;;18.62;100.00;101598.13;5038583;28;20538;-49
2023/06/17 05:33:01;;;;;;;7.82;6.82;;;;;;;18.73;100.00;101589.25;5037282;28;20017;-48
2023/06/17 05:35:27;;;;;;;11.30;8.32;;;;;;;18.90;100.00;101591.50;5035589;28;20023;-49
2023/06/17 05:37:52;;;;;;;10.68;8.80;;;;;;;19.01;100.00;101590.81;5035801;28;20387;-50
2023/06/17 05:40:18;;;;;;;11.93;8.13;;;;;;;19.11;100.00;101591.16;5027916;28;20032;-49
2023/06/17 05:42:45;;;;;;;8.75;7.07;;;;;;;19.20;100.00;101581.66;5035175;28;20037;-49
2023/06/17 05:45:11;;;;;;;8.70;6.75;;;;;;;19.22;100.00;101585.00;5035117;28;20033;-49
2023/06/17 05:47:36;;;;;;;9.75;6.53;;;;;;;19.20;100.00;101584.38;5032906;28;20022;-48
2023/06/17 05:50:02;;;;;;;8.95;5.30;;;;;;;19.20;100.00;101575.38;5035492;28;20038;-50
2023/06/17 05:52:27;;;;;;;8.52;5.43;;;;;;;19.21;100.00;101579.75;5034304;28;20563;-50
2023/06/17 05:54:52;;;;;;;9.68;4.57;;;;;;;19.25;100.00;101575.53;5038310;28;20045;-50
2023/06/17 05:57:21;;;;;;;6.82;5.03;;;;;;;19.38;100.00;101575.44;5036014;28;20507;-52
2023/06/17 05:59:46;;;;;;;6.40;4.60;;;;;;;19.46;100.00;101577.88;5035587;28;20103;-47
2023/06/17 06:02:11;;;;;;;9.35;4.60;;;;;;;19.67;100.00;101579.41;5019129;28;20030;-45
2023/06/17 06:04:37;;;;;;;8.02;4.63;;;;;;;19.84;100.00;101574.19;5036829;28;20069;-49
2023/06/17 06:07:02;;;;;;;7.85;5.22;;;;;;;20.01;100.00;101568.13;5036090;28;20108;-49
2023/06/17 06:09:28;;;;;;;10.32;5.05;;;;;;;20.02;100.00;101564.34;5035177;28;20065;-46
2023/06/17 06:11:53;;;;;;;4.68;4.20;;;;;;;20.12;100.00;101565.50;5034527;28;20037;-48
2023/06/17 06:14:18;;;;;;;7.10;4.50;;;;;;;20.26;100.00;101568.91;5032344;28;20041;-50
2023/06/17 06:16:44;;;;;;;5.43;4.22;;;;;;;20.39;100.00;101568.72;5040862;28;20484;-47
2023/06/17 06:19:09;;;;;;;5.10;3.75;;;;;;;20.52;100.00;101569.63;5040620;28;20033;-48
2023/06/17 06:21:34;;;;;;;7.78;4.00;;;;;;;20.70;100.00;101566.91;5026557;28;20049;-50
2023/06/17 06:24:00;;;;;;;8.80;3.90;;;;;;;20.94;100.00;101566.97;5041600;28;20032;-52
2023/06/17 06:26:26;;;;;;;7.60;3.88;;;;;;;21.19;100.00;101567.63;5021467;28;20708;-51
2023/06/17 06:28:51;;;;;;;7.07;3.78;;;;;;;21.42;97.80;101563.28;5039781;28;20065;-48
2023/06/17 06:31:17;;;;;;;5.70;3.47;;;;;;;21.71;93.94;101567.00;5041440;28;20475;-49
2023/06/17 06:33:42;;;;;;;5.10;4.00;;;;;;;21.95;89.48;101566.97;5040461;28;20099;-50
2023/06/17 06:36:09;;;;;;;6.47;4.03;;;;;;;22.16;86.80;101569.09;5037219;28;20025;-50
2023/06/17 06:38:36;;;;;;;12.80;3.60;;;;;;;22.46;85.39;101566.19;5036275;28;20025;-51
2023/06/17 06:41:01;;;;;;;15.35;4.28;;;;;;;22.70;82.46;101568.84;5039636;28;20029;-47
2023/06/17 06:43:26;;;;;;;6.30;3.55;;;;;;;22.81;80.90;101558.88;5034613;28;20095;-47
2023/06/17 06:45:52;;;;;;;6.43;3.72;;;;;;;22.75;75.95;101561.53;5040083;28;20025;-49
2023/06/17 06:48:17;;;;;;;5.65;3.85;;;;;;;22.67;77.92;101563.81;5038050;28;20100;-47
2023/06/17 06:50:42;;;;;;;8.10;3.88;;;;;;;22.65;78.25;101566.00;5038976;28;20261;-50
2023/06/17 06:53:08;;;;;;;8.30;3.42;;;;;;;22.65;77.37;101560.50;5036265;28;20416;-49
2023/06/17 06:55:33;;;;;;;7.60;3.60;;;;;;;22.76;75.29;101562.38;5036281;28;20406;-51
2023/06/17 06:58:00;;;;;;;4.88;2.90;;;;;;;22.89;75.78;101564.81;5033982;28;20557;-47
2023/06/17 07:00:25;;;;;;;3.80;3.30;;;;;;;23.27;71.35;101566.03;5039224;28;20059;-50
2023/06/17 07:02:50;;;;;;;4.70;3.40;;;;;;;23.85;70.56;101562.00;5039012;28;20479;-47
2023/06/17 07:05:16;;;;;;;7.43;3.80;;;;;;;24.40;69.82;101564.91;5035942;28;20357;-48
2023/06/17 07:07:41;;;;;;;5.20;3.35;;;;;;;25.27;69.73;101563.09;5046407;28;20024;-49
2023/06/17 07:10:08;;;;;;;8.32;3.30;;;;;;;26.28;66.06;101564.88;5048755;28;20021;-47
2023/06/17 07:12:33;;;;;;;4.60;3.50;;;;;;;27.45;56.67;101569.78;5048564;28;20459;-48
2023/06/17 07:14:59;;;;;;;4.32;3.47;;;;;;;28.14;54.10;101570.22;5034900;28;20076;-49
2023/06/17 07:17:24;;;;;;;4.90;3.20;;;;;;;28.26;52.21;101579.03;5045636;28;20060;-47
2023/06/17 07:19:49;;;;;;;6.10;3.28;;;;;;;29.09;52.23;101578.28;5049423;28;20245;-47
2023/06/17 07:22:15;;;;;;;8.65;3.30;;;;;;;29.78;48.90;101580.22;5049512;28;20025;-46
2023/06/17 07:24:42;;;;;;;5.43;3.42;;;;;;;30.03;46.82;101570.78;5046177;28;20062;-52
2023/06/17 07:27:07;;;;;;;7.03;3.80;;;;;;;30.46;46.16;101573.59;5047801;28;20050;-46
2023/06/17 07:29:33;;;;;;;4.83;2.97;;;;;;;30.97;45.16;101570.94;5029355;28;20033;-48
2023/06/17 07:32:00;;;;;;;3.40;3.10;;;;;;;31.96;42.21;101565.31;5012132;28;20037;-48
2023/06/17 07:34:25;;;;;;;4.82;2.90;;;;;;;32.57;38.96;101566.81;5033213;28;20028;-50
2023/06/17 07:36:52;;;;;;;8.60;3.30;;;;;;;31.60;41.66;101569.59;5049197;28;20029;-50
2023/06/17 07:39:21;;;;;;;6.82;3.70;;;;;;;31.88;40.96;101564.03;5034229;28;20498;-47
2023/06/17 07:41:46;;;;;;;7.05;3.30;;;;;;;31.45;42.91;101567.09;5029371;28;20036;-49
2023/06/17 07:44:12;;;;;;;5.60;3.20;;;;;;;32.04;41.25;101568.19;5029440;28;20032;-48
2023/06/17 07:46:37;;;;;;;3.53;2.90;;;;;;;32.62;39.12;101577.84;5028380;28;20092;-48
2023/06/17 07:49:03;;;;;;;7.20;3.30;;;;;;;31.88;41.00;101569.63;5020266;28;20029;-52
2023/06/17 07:51:28;;;;;;;4.90;3.10;;;;;;;31.77;41.01;101568.16;5026822;28;20037;-49
2023/06/17 07:53:53;;;;;;;4.80;3.17;;;;;;;32.58;38.56;101569.28;5029834;28;20434;-47
2023/06/17 07:56:19;;;;;;;3.43;3.13;;;;;;;32.42;38.40;101567.97;5027457;28;20936;-48
2023/06/17 07:58:45;;;;;;;3.15;2.65;;;;;;;33.09;36.91;101574.81;5028391;28;20030;-51
2023/06/17 08:01:11;;;;;;;5.78;3.03;;;;;;;33.17;33.98;101572.09;5027505;28;20029;-48
2023/06/17 08:03:36;;;;;;;5.40;3.30;;;;;;;32.80;35.00;101579.66;5019359;28;20029;-45
2023/06/17 08:06:02;;;;;;;7.70;3.50;;;;;;;32.83;33.74;101578.19;5048957;28;20033;-48
2023/06/17 08:08:27;;;;;;;5.00;3.20;;;;;;;32.87;33.33;101576.44;5036125;28;20037;-47
2023/06/17 08:10:52;;;;;;;4.03;3.07;;;;;;;32.57;32.98;101564.88;5011573;28;20041;-50
2023/06/17 08:13:18;;;;;;;4.17;3.17;;;;;;;32.85;33.22;101564.78;5028549;28;20037;-50
2023/06/17 08:15:43;;;;;;;3.83;2.90;;;;;;;32.93;33.63;101571.56;5048906;28;20066;-49
2023/06/17 08:18:08;;;;;;;5.40;2.93;;;;;;;32.89;33.67;101564.94;5045908;28;20021;-47
2023/06/17 08:20:36;;;;;;;5.70;3.03;;;;;;;33.44;33.27;101565.53;5030689;28;20076;-51
2023/06/17 08:23:02;;;;;;;3.15;2.85;;;;;;;33.74;29.41;101563.09;5030526;28;20053;-53
2023/06/17 08:25:27;;;;;;;3.80;2.83;;;;;;;33.41;30.07;101563.41;5031678;28;20143;-49
2023/06/17 08:27:52;;;;;;;4.80;3.10;;;;;;;33.00;31.75;101566.38;5048165;28;20021;-47
2023/06/17 08:30:18;;;;;;;5.80;2.73;;;;;;;33.06;31.17;101564.31;5035366;28;20045;-46
2023/06/17 08:32:43;;;;;;;4.03;2.80;;;;;;;33.38;28.68;101561.22;5032222;28;20028;-48
2023/06/17 08:35:09;;;;;;;8.83;2.93;;;;;;;33.17;29.84;101569.28;5041015;28;20121;-48
2023/06/17 08:37:34;;;;;;;4.07;2.90;;;;;;;33.24;29.87;101557.72;5027423;28;20022;-50
2023/06/17 08:40:00;;;;;;;7.00;3.03;;;;;;;32.76;30.89;101572.25;5027807;28;20036;-51
2023/06/17 08:42:28;;;;;;;5.53;2.77;;;;;;;33.65;29.02;101565.00;5040966;28;20067;-49
2023/06/17 08:44:54;;;;;;;4.57;2.90;;;;;;;32.94;28.80;101559.25;5030473;28;20033;-48
2023/06/17 08:47:20;;;;;;;8.85;3.10;;;;;;;32.01;29.39;101563.25;5048083;28;20061;-46
2023/06/17 08:49:45;;;;;;;4.40;2.88;;;;;;;31.81;31.26;101553.34;5048643;28;20475;-48
2023/06/17 08:52:13;;;;;;;3.47;2.90;;;;;;;32.41;31.20;101555.16;5028376;28;20043;-48
2023/06/17 08:54:42;;;;;;;5.15;3.15;;;;;;;33.46;29.69;101551.25;5046866;28;20060;-49
2023/06/17 08:57:12;;;;;;;6.43;2.80;;;;;;;33.06;29.38;101559.53;5048419;28;20049;-51
2023/06/17 08:59:37;;;;;;;4.00;2.60;;;;;;;33.85;28.67;101547.69;5046872;28;20071;-48
2023/06/17 09:02:03;;;;;;;7.43;3.60;;;;;;;34.67;27.77;101559.25;5045456;28;20036;-48
2023/06/17 09:04:29;;;;;;;4.65;2.80;;;;;;;34.89;26.86;101549.88;5026852;28;20041;-48
2023/06/17 09:06:55;;;;;;;4.70;2.72;;;;;;;35.16;25.99;101551.50;5028471;28;20045;-47
2023/06/17 09:09:20;;;;;;;3.83;2.95;;;;;;;35.43;25.32;101549.47;5026472;28;20056;-49
2023/06/17 09:11:50;;;;;;;5.87;2.83;;;;;;;35.24;26.04;101555.44;5028148;28;20041;-47
2023/06/17 09:14:16;;;;;;;4.25;2.60;;;;;;;34.63;26.07;101549.88;5029591;28;20115;-48
2023/06/17 09:16:43;;;;;;;5.78;2.55;;;;;;;34.03;26.00;101547.75;5040431;28;20040;-46
2023/06/17 09:19:09;;;;;;;5.75;2.80;;;;;;;34.71;26.24;101546.25;5046854;28;20029;-50
2023/06/17 09:21:35;;;;;;;3.85;2.83;;;;;;;35.56;24.60;101547.63;5046647;28;20064;-48
2023/06/17 09:24:05;;;;;;;6.75;3.03;;;;;;;34.77;24.46;101546.09;5049028;28;20122;-49
2023/06/17 09:26:32;;;;;;;7.75;3.17;;;;;;;34.94;24.32;101544.13;5048882;28;20070;-48
2023/06/17 09:29:06;;;;;;;6.43;2.83;;;;;;;34.95;24.85;101544.94;5047240;28;20029;-47
2023/06/17 09:31:33;;;;;;;4.35;2.72;;;;;;;35.47;23.99;101539.25;5048333;28;20113;-49
2023/06/17 09:34:02;;;;;;;3.40;2.60;;;;;;;34.93;24.38;101547.22;5044009;28;20033;-48
2023/06/17 09:36:28;;;;;;;5.05;2.67;;;;;;;35.36;24.86;101544.41;5037900;28;20033;-49
2023/06/17 09:38:54;;;;;;;7.57;2.97;;;;;;;35.35;24.47;101545.53;5036800;28;20033;-51
2023/06/17 09:41:23;;;;;;;4.72;2.60;;;;;;;35.92;23.72;101544.34;5036272;28;20037;-50
2023/06/17 09:43:53;;;;;;;5.80;2.60;;;;;;;35.41;23.67;101537.78;5038049;28;20041;-49
2023/06/17 09:46:29;;;;;;;4.40;2.60;;;;;;;36.21;22.62;101537.94;5036217;28;20030;-49
2023/06/17 09:48:54;;;;;;;;;;;;;;;36.04;22.12;101536.03;5039102;28;20151;-49
2023/06/17 09:51:21;;;;;;;6.73;2.70;;;;;;;35.49;23.29;101530.50;5043009;28;20007;-49
2023/06/17 09:53:49;;;;;;;3.28;2.70;;;;;;;34.93;24.02;101530.44;5043238;28;20034;-48
2023/06/17 09:56:14;;;;;;;5.38;2.90;;;;;;;35.10;23.23;101541.66;5036413;28;20050;-50
2023/06/17 09:58:41;;;;;;;9.33;3.00;;;;;;;34.66;24.06;101537.22;5043156;28;20033;-48
2023/06/17 10:01:07;;;;;;;6.85;3.08;;;;;;;34.74;24.48;101544.78;5038971;28;20684;-48
2023/06/17 10:03:37;;;;;;;2.97;2.60;;;;;;;34.87;23.40;101542.97;5045755;28;20075;-48
2023/06/17 10:06:10;;;;;;;4.32;2.60;;;;;;;35.52;23.01;101536.28;5041478;28;20045;-47
2023/06/17 10:08:36;;;;;;;5.95;3.15;;;;;;;34.97;24.68;101537.03;5042704;28;20025;-50
2023/06/17 10:11:02;;;;;;;5.57;2.90;;;;;;;35.27;24.72;101535.19;5041033;28;20459;-48
2023/06/17 10:13:38;;;;;;;4.87;2.83;;;;;;;35.88;22.32;101537.78;5043569;28;20017;-50
2023/06/17 10:16:08;;;;;;;5.90;2.92;;;;;;;35.11;22.67;101529.31;5037705;28;20467;-49
2023/06/17 10:18:36;;;;;;;3.13;2.60;;;;;;;34.12;23.42;101522.66;5036940;28;20364;-47
2023/06/17 10:21:02;;;;;;;5.43;3.10;;;;;;;34.74;23.41;101528.81;5027278;28;20022;-52
2023/06/17 10:23:28;;;;;;;3.00;2.70;;;;;;;35.05;23.35;101532.59;5026841;28;20387;-49
2023/06/17 10:25:54;;;;;;;6.07;3.10;;;;;;;34.92;23.34;101526.84;5049190;28;20536;-49
2023/06/17 10:28:19;;;;;;;3.92;2.83;;;;;;;35.08;24.04;101527.16;5041797;28;20017;-46
2023/06/17 10:30:46;;;;;;;12.03;3.00;;;;;;;35.53;23.28;101520.28;5039843;28;20033;-49
2023/06/17 10:33:11;;;;;;;;;;;;;;;35.72;22.45;101520.72;5041593;28;20574;-49
2023/06/17 10:35:37;;;;;;;;;;;;;;;36.02;21.92;101520.72;5042851;28;19924;-48
2023/06/17 10:38:04;;;;;;;5.32;2.90;;;;;;;35.66;22.54;101519.28;5041093;28;19977;-45
2023/06/17 10:40:35;;;;;;;7.27;2.97;;;;;;;35.29;22.69;101509.69;5044672;28;20123;-49
2023/06/17 10:43:06;;;;;;;3.55;2.55;;;;;;;35.22;23.90;101504.59;5032981;28;20057;-49
2023/06/17 10:45:33;;;;;;;3.78;2.92;;;;;;;34.90;24.65;101498.38;5033280;28;20117;-50
2023/06/17 10:48:15;;;;;;;4.65;3.05;;;;;;;34.87;24.22;101498.22;5038914;28;20021;-47
2023/06/17 10:50:47;;;;;;;4.78;2.83;;;;;;;34.88;23.94;101505.44;5050588;28;20024;-47
2023/06/17 10:53:18;;;;;;;3.20;2.70;;;;;;;35.57;23.47;101498.84;5050417;28;20037;-48
2023/06/17 10:55:45;;;;;;;4.82;2.95;;;;;;;35.54;23.60;101489.13;5050364;28;20506;-46
2023/06/17 10:58:10;;;;;;;4.53;3.00;;;;;;;35.11;24.08;101495.72;5051284;28;20025;-47
2023/06/17 11:00:36;;;;;;;4.70;2.80;;;;;;;35.42;23.37;101496.59;5049942;28;20040;-47
2023/06/17 11:03:01;;;;;;;4.47;3.00;;;;;;;35.34;22.76;101496.31;5037059;28;20055;-49
2023/06/17 11:05:33;;;;;;;3.07;2.77;;;;;;;35.45;22.52;101493.97;5031023;28;20033;-48
2023/06/17 11:07:59;;;;;;;4.28;3.00;;;;;;;34.93;22.65;101491.28;5030990;28;20493;-46
2023/06/17 11:10:24;;;;;;;5.60;3.20;;;;;;;34.20;24.09;101483.56;5043829;28;20075;-47
2023/06/17 11:12:50;;;;;;;7.80;3.30;;;;;;;34.30;24.39;101480.44;5051093;28;20044;-48